sensor_id;sensor_type;location;lat;lon;timestamp;pressure;altitude;pressure_sealevel;temperature;humidity
16355;BME280;8287;51.644;8.494;2022-12-18T00:01:57;101686.94;;;-5.11;79.96
16355;BME280;8287;51.644;8.494;2022-12-18T00:04:26;101706.16;;;-5.14;79.79
16355;BME280;8287;51.644;8.494;2022-12-18T00:06:54;101706.47;;;-5.17;79.76
16355;BME280;8287;51.644;8.494;2022-12-18T00:09:21;101707.84;;;-5.29;79.86
16355;BME280;8287;51.644;8.494;2022-12-18T00:11:48;101704.94;;;-5.34;81.00
16355;BME280;8287;51.644;8.494;2022-12-18T00:14:14;101697.84;;;-5.32;80.98
16355;BME280;8287;51.644;8.494;2022-12-18T00:16:44;101697.31;;;-5.19;81.59
16355;BME280;8287;51.644;8.494;2022-12-18T00:19:12;101689.38;;;-5.18;81.38
16355;BME280;8287;51.644;8.494;2022-12-18T00:21:38;101695.47;;;-5.11;81.66
16355;BME280;8287;51.644;8.494;2022-12-18T00:24:07;101703.38;;;-5.12;81.46
16355;BME280;8287;51.644;8.494;2022-12-18T00:26:36;101703.06;;;-5.09;81.43
16355;BME280;8287;51.644;8.494;2022-12-18T00:29:04;101699.34;;;-5.07;81.42
16355;BME280;8287;51.644;8.494;2022-12-18T00:31:32;101701.56;;;-5.04;81.33
16355;BME280;8287;51.644;8.494;2022-12-18T00:33:59;101704.78;;;-5.02;80.95
16355;BME280;8287;51.644;8.494;2022-12-18T00:36:28;101700.75;;;-5.04;80.60
16355;BME280;8287;51.644;8.494;2022-12-18T00:38:57;101710.94;;;-5.03;80.35
16355;BME280;8287;51.644;8.494;2022-12-18T00:41:26;101702.75;;;-5.14;79.91
16355;BME280;8287;51.644;8.494;2022-12-18T00:44:12;101702.63;;;-5.21;79.92
16355;BME280;8287;51.644;8.494;2022-12-18T00:46:39;101712.03;;;-5.28;80.08
16355;BME280;8287;51.644;8.494;2022-12-18T00:49:06;101705.56;;;-5.24;80.77
16355;BME280;8287;51.644;8.494;2022-12-18T00:51:32;101704.88;;;-5.18;81.09
16355;BME280;8287;51.644;8.494;2022-12-18T00:53:59;101703.88;;;-5.17;81.58
16355;BME280;8287;51.644;8.494;2022-12-18T00:56:27;101705.47;;;-5.08;81.16
16355;BME280;8287;51.644;8.494;2022-12-18T00:58:54;101705.28;;;-5.06;81.42
16355;BME280;8287;51.644;8.494;2022-12-18T01:01:20;101690.25;;;-5.03;81.24
16355;BME280;8287;51.644;8.494;2022-12-18T01:03:47;101709.16;;;-5.02;80.77
16355;BME280;8287;51.644;8.494;2022-12-18T01:06:14;101709.84;;;-5.08;80.55
16355;BME280;8287;51.644;8.494;2022-12-18T01:08:42;101709.69;;;-5.07;80.35
16355;BME280;8287;51.644;8.494;2022-12-18T01:11:09;101700.00;;;-5.13;80.55
16355;BME280;8287;51.644;8.494;2022-12-18T01:13:37;101702.63;;;-5.21;81.16
16355;BME280;8287;51.644;8.494;2022-12-18T01:16:04;101708.50;;;-5.04;81.00
16355;BME280;8287;51.644;8.494;2022-12-18T01:18:31;101703.84;;;-5.09;80.46
16355;BME280;8287;51.644;8.494;2022-12-18T01:20:58;101702.91;;;-5.16;80.55
16355;BME280;8287;51.644;8.494;2022-12-18T01:23:26;101696.03;;;-5.23;80.67
16355;BME280;8287;51.644;8.494;2022-12-18T01:25:52;101691.94;;;-5.18;81.45
16355;BME280;8287;51.644;8.494;2022-12-18T01:28:19;101691.31;;;-5.20;81.68
16355;BME280;8287;51.644;8.494;2022-12-18T01:30:47;101700.09;;;-4.98;81.42
16355;BME280;8287;51.644;8.494;2022-12-18T01:33:14;101691.88;;;-5.02;81.45
16355;BME280;8287;51.644;8.494;2022-12-18T01:35:41;101679.94;;;-5.03;81.20
16355;BME280;8287;51.644;8.494;2022-12-18T01:38:08;101680.41;;;-4.99;81.00
16355;BME280;8287;51.644;8.494;2022-12-18T01:40:34;101676.88;;;-5.06;80.74
16355;BME280;8287;51.644;8.494;2022-12-18T01:43:01;101678.31;;;-5.04;80.77
16355;BME280;8287;51.644;8.494;2022-12-18T01:45:30;101684.06;;;-4.94;80.54
16355;BME280;8287;51.644;8.494;2022-12-18T01:48:00;101677.69;;;-5.06;80.20
16355;BME280;8287;51.644;8.494;2022-12-18T01:50:31;101674.50;;;-5.16;80.57
16355;BME280;8287;51.644;8.494;2022-12-18T01:53:02;101688.53;;;-5.10;80.57
16355;BME280;8287;51.644;8.494;2022-12-18T01:55:32;101687.06;;;-5.05;80.67
16355;BME280;8287;51.644;8.494;2022-12-18T01:58:01;101681.38;;;-5.00;80.23
16355;BME280;8287;51.644;8.494;2022-12-18T02:00:29;101680.72;;;-4.94;79.95
16355;BME280;8287;51.644;8.494;2022-12-18T02:02:56;101674.56;;;-4.93;79.80
16355;BME280;8287;51.644;8.494;2022-12-18T02:05:45;101677.31;;;-4.95;79.73
16355;BME280;8287;51.644;8.494;2022-12-18T02:08:16;101679.22;;;-4.89;79.71
16355;BME280;8287;51.644;8.494;2022-12-18T02:10:50;101682.63;;;-4.96;79.07
16355;BME280;8287;51.644;8.494;2022-12-18T02:13:25;101673.78;;;-5.02;79.22
16355;BME280;8287;51.644;8.494;2022-12-18T02:15:59;101672.19;;;-5.03;79.74
16355;BME280;8287;51.644;8.494;2022-12-18T02:18:32;101685.00;;;-4.87;79.46
16355;BME280;8287;51.644;8.494;2022-12-18T02:21:08;101678.50;;;-4.83;78.75
16355;BME280;8287;51.644;8.494;2022-12-18T02:23:49;101679.59;;;-5.00;77.53
16355;BME280;8287;51.644;8.494;2022-12-18T02:26:23;101692.22;;;-5.05;77.15
16355;BME280;8287;51.644;8.494;2022-12-18T02:28:55;101688.34;;;-5.09;76.69
16355;BME280;8287;51.644;8.494;2022-12-18T02:31:25;101691.78;;;-5.16;76.69
16355;BME280;8287;51.644;8.494;2022-12-18T02:33:54;101685.25;;;-5.35;76.35
16355;BME280;8287;51.644;8.494;2022-12-18T02:36:23;101684.97;;;-5.40;76.42
16355;BME280;8287;51.644;8.494;2022-12-18T02:38:50;101684.63;;;-5.37;77.02
16355;BME280;8287;51.644;8.494;2022-12-18T02:41:20;101681.56;;;-5.40;76.66
16355;BME280;8287;51.644;8.494;2022-12-18T02:43:49;101681.44;;;-5.47;76.53
16355;BME280;8287;51.644;8.494;2022-12-18T02:46:28;101668.59;;;-5.63;76.50
16355;BME280;8287;51.644;8.494;2022-12-18T02:49:03;101667.97;;;-5.73;76.87
16355;BME280;8287;51.644;8.494;2022-12-18T02:51:39;101670.69;;;-5.66;77.44
16355;BME280;8287;51.644;8.494;2022-12-18T02:54:16;101676.84;;;-5.75;77.12
16355;BME280;8287;51.644;8.494;2022-12-18T02:56:51;101675.13;;;-5.83;76.93
16355;BME280;8287;51.644;8.494;2022-12-18T02:59:24;101675.47;;;-6.02;77.59
16355;BME280;8287;51.644;8.494;2022-12-18T03:01:57;101673.22;;;-5.97;78.31
16355;BME280;8287;51.644;8.494;2022-12-18T03:04:26;101664.53;;;-5.96;77.91
16355;BME280;8287;51.644;8.494;2022-12-18T03:06:57;101661.91;;;-5.88;78.12
16355;BME280;8287;51.644;8.494;2022-12-18T03:09:29;101666.25;;;-5.88;77.82
16355;BME280;8287;51.644;8.494;2022-12-18T03:12:03;101665.97;;;-5.93;77.81
16355;BME280;8287;51.644;8.494;2022-12-18T03:14:50;101667.13;;;-6.04;78.11
16355;BME280;8287;51.644;8.494;2022-12-18T03:17:20;101665.00;;;-5.92;78.24
16355;BME280;8287;51.644;8.494;2022-12-18T03:19:49;101676.09;;;-5.92;78.02
16355;BME280;8287;51.644;8.494;2022-12-18T03:22:18;101678.06;;;-6.02;77.70
16355;BME280;8287;51.644;8.494;2022-12-18T03:24:46;101676.47;;;-6.11;78.06
16355;BME280;8287;51.644;8.494;2022-12-18T03:27:18;101677.44;;;-6.20;77.79
16355;BME280;8287;51.644;8.494;2022-12-18T03:29:49;101688.09;;;-6.22;78.36
16355;BME280;8287;51.644;8.494;2022-12-18T03:32:23;101687.13;;;-6.14;79.06
16355;BME280;8287;51.644;8.494;2022-12-18T03:34:53;101690.97;;;-6.10;79.72
16355;BME280;8287;51.644;8.494;2022-12-18T03:37:22;101686.78;;;-6.03;79.11
16355;BME280;8287;51.644;8.494;2022-12-18T03:39:48;101681.63;;;-6.03;79.17
16355;BME280;8287;51.644;8.494;2022-12-18T03:42:23;101691.94;;;-6.03;78.08
16355;BME280;8287;51.644;8.494;2022-12-18T03:44:56;101687.25;;;-6.07;78.24
16355;BME280;8287;51.644;8.494;2022-12-18T03:47:27;101695.16;;;-6.09;78.65
16355;BME280;8287;51.644;8.494;2022-12-18T03:49:57;101691.94;;;-6.03;79.50
16355;BME280;8287;51.644;8.494;2022-12-18T03:52:28;101681.63;;;-6.11;80.04
16355;BME280;8287;51.644;8.494;2022-12-18T03:54:58;101682.25;;;-6.01;80.75
16355;BME280;8287;51.644;8.494;2022-12-18T03:57:29;101676.47;;;-6.03;80.60
16355;BME280;8287;51.644;8.494;2022-12-18T04:00:00;101674.19;;;-5.98;80.69
16355;BME280;8287;51.644;8.494;2022-12-18T04:02:27;101674.50;;;-6.01;80.48
16355;BME280;8287;51.644;8.494;2022-12-18T04:04:58;101673.41;;;-6.06;81.07
16355;BME280;8287;51.644;8.494;2022-12-18T04:07:26;101679.84;;;-6.02;81.20
16355;BME280;8287;51.644;8.494;2022-12-18T04:09:56;101680.16;;;-6.05;81.87
16355;BME280;8287;51.644;8.494;2022-12-18T04:12:24;101666.13;;;-6.03;82.27
16355;BME280;8287;51.644;8.494;2022-12-18T04:14:53;101666.59;;;-5.83;83.02
16355;BME280;8287;51.644;8.494;2022-12-18T04:17:19;101666.19;;;-5.72;83.48
16355;BME280;8287;51.644;8.494;2022-12-18T04:19:46;101664.06;;;-5.61;83.38
16355;BME280;8287;51.644;8.494;2022-12-18T04:22:13;101677.06;;;-5.46;82.74
16355;BME280;8287;51.644;8.494;2022-12-18T04:24:40;101684.00;;;-5.39;81.36
16355;BME280;8287;51.644;8.494;2022-12-18T04:27:06;101685.28;;;-5.43;80.23
16355;BME280;8287;51.644;8.494;2022-12-18T04:29:33;101680.34;;;-5.52;79.42
16355;BME280;8287;51.644;8.494;2022-12-18T04:32:01;101671.97;;;-5.70;78.90
16355;BME280;8287;51.644;8.494;2022-12-18T04:34:28;101671.59;;;-5.82;79.33
16355;BME280;8287;51.644;8.494;2022-12-18T04:36:54;101673.00;;;-5.79;79.92
16355;BME280;8287;51.644;8.494;2022-12-18T04:39:21;101673.78;;;-5.71;79.59
16355;BME280;8287;51.644;8.494;2022-12-18T04:41:47;101680.63;;;-5.86;79.36
16355;BME280;8287;51.644;8.494;2022-12-18T04:44:14;101686.41;;;-5.92;80.11
16355;BME280;8287;51.644;8.494;2022-12-18T04:46:42;101698.06;;;-5.96;80.38
16355;BME280;8287;51.644;8.494;2022-12-18T04:49:10;101695.31;;;-5.86;81.37
16355;BME280;8287;51.644;8.494;2022-12-18T04:51:37;101711.19;;;-5.75;82.23
16355;BME280;8287;51.644;8.494;2022-12-18T04:54:06;101697.97;;;-5.72;82.43
16355;BME280;8287;51.644;8.494;2022-12-18T04:56:33;101698.09;;;-5.65;82.26
16355;BME280;8287;51.644;8.494;2022-12-18T04:59:00;101696.03;;;-5.70;82.24
16355;BME280;8287;51.644;8.494;2022-12-18T05:01:27;101693.44;;;-5.70;82.44
16355;BME280;8287;51.644;8.494;2022-12-18T05:03:54;101693.78;;;-5.65;82.78
16355;BME280;8287;51.644;8.494;2022-12-18T05:06:22;101681.84;;;-5.66;82.80
16355;BME280;8287;51.644;8.494;2022-12-18T05:08:49;101674.03;;;-5.58;83.17
16355;BME280;8287;51.644;8.494;2022-12-18T05:11:15;101682.72;;;-5.51;83.55
16355;BME280;8287;51.644;8.494;2022-12-18T05:13:43;101682.72;;;-5.51;84.15
16355;BME280;8287;51.644;8.494;2022-12-18T05:16:09;101680.03;;;-5.57;84.26
16355;BME280;8287;51.644;8.494;2022-12-18T05:18:36;101681.69;;;-5.34;84.86
16355;BME280;8287;51.644;8.494;2022-12-18T05:21:03;101677.81;;;-5.30;84.64
16355;BME280;8287;51.644;8.494;2022-12-18T05:23:32;101661.97;;;-5.27;84.48
16355;BME280;8287;51.644;8.494;2022-12-18T05:26:00;101677.53;;;-5.43;84.70
16355;BME280;8287;51.644;8.494;2022-12-18T05:28:29;101677.69;;;-5.36;85.17
16355;BME280;8287;51.644;8.494;2022-12-18T05:30:57;101671.38;;;-5.34;84.73
16355;BME280;8287;51.644;8.494;2022-12-18T05:33:26;101669.75;;;-5.35;85.38
16355;BME280;8287;51.644;8.494;2022-12-18T05:35:54;101672.56;;;-5.14;85.02
16355;BME280;8287;51.644;8.494;2022-12-18T05:38:22;101670.78;;;-5.13;84.76
16355;BME280;8287;51.644;8.494;2022-12-18T05:40:51;101665.09;;;-5.09;84.46
16355;BME280;8287;51.644;8.494;2022-12-18T05:43:18;101654.91;;;-5.02;84.46
16355;BME280;8287;51.644;8.494;2022-12-18T05:45:47;101661.69;;;-5.01;84.03
16355;BME280;8287;51.644;8.494;2022-12-18T05:48:14;101650.88;;;-5.05;83.96
16355;BME280;8287;51.644;8.494;2022-12-18T05:50:42;101663.56;;;-4.95;83.86
16355;BME280;8287;51.644;8.494;2022-12-18T05:53:11;101660.94;;;-4.87;83.52
16355;BME280;8287;51.644;8.494;2022-12-18T05:55:40;101659.84;;;-4.93;83.17
16355;BME280;8287;51.644;8.494;2022-12-18T05:58:10;101658.25;;;-4.94;83.70
16355;BME280;8287;51.644;8.494;2022-12-18T06:00:38;101650.59;;;-4.87;83.56
16355;BME280;8287;51.644;8.494;2022-12-18T06:03:06;101657.72;;;-4.89;83.07
16355;BME280;8287;51.644;8.494;2022-12-18T06:05:34;101660.59;;;-4.84;82.79
16355;BME280;8287;51.644;8.494;2022-12-18T06:08:01;101658.50;;;-4.81;82.64
16355;BME280;8287;51.644;8.494;2022-12-18T06:10:28;101660.94;;;-4.87;82.29
16355;BME280;8287;51.644;8.494;2022-12-18T06:12:54;101666.56;;;-4.84;82.08
16355;BME280;8287;51.644;8.494;2022-12-18T06:15:22;101663.81;;;-4.82;81.85
16355;BME280;8287;51.644;8.494;2022-12-18T06:17:49;101659.38;;;-4.96;81.69
16355;BME280;8287;51.644;8.494;2022-12-18T06:20:16;101660.97;;;-4.95;81.89
16355;BME280;8287;51.644;8.494;2022-12-18T06:22:43;101663.75;;;-4.97;81.86
16355;BME280;8287;51.644;8.494;2022-12-18T06:25:09;101664.16;;;-4.85;81.99
16355;BME280;8287;51.644;8.494;2022-12-18T06:27:36;101665.06;;;-5.01;81.40
16355;BME280;8287;51.644;8.494;2022-12-18T06:30:03;101659.66;;;-5.14;81.66
16355;BME280;8287;51.644;8.494;2022-12-18T06:32:31;101671.56;;;-5.05;81.73
16355;BME280;8287;51.644;8.494;2022-12-18T06:34:58;101668.34;;;-5.07;81.46
16355;BME280;8287;51.644;8.494;2022-12-18T06:37:24;101675.75;;;-5.04;81.74
16355;BME280;8287;51.644;8.494;2022-12-18T06:39:51;101672.56;;;-5.14;81.54
16355;BME280;8287;51.644;8.494;2022-12-18T06:42:18;101676.13;;;-5.15;82.20
16355;BME280;8287;51.644;8.494;2022-12-18T06:44:48;101664.81;;;-5.14;81.89
16355;BME280;8287;51.644;8.494;2022-12-18T06:47:16;101679.00;;;-5.10;81.73
16355;BME280;8287;51.644;8.494;2022-12-18T06:49:44;101684.63;;;-5.06;80.98
16355;BME280;8287;51.644;8.494;2022-12-18T06:52:12;101688.81;;;-5.05;81.18
16355;BME280;8287;51.644;8.494;2022-12-18T06:54:39;101699.34;;;-5.07;81.27
16355;BME280;8287;51.644;8.494;2022-12-18T06:57:07;101700.00;;;-5.13;81.08
16355;BME280;8287;51.644;8.494;2022-12-18T06:59:34;101694.84;;;-5.13;81.23
16355;BME280;8287;51.644;8.494;2022-12-18T07:02:01;101691.28;;;-5.12;81.34
16355;BME280;8287;51.644;8.494;2022-12-18T07:04:28;101690.66;;;-5.14;80.40
16355;BME280;8287;51.644;8.494;2022-12-18T07:06:56;101696.81;;;-5.15;80.48
16355;BME280;8287;51.644;8.494;2022-12-18T07:09:23;101699.72;;;-5.26;80.01
16355;BME280;8287;51.644;8.494;2022-12-18T07:11:50;101688.81;;;-5.36;80.52
16355;BME280;8287;51.644;8.494;2022-12-18T07:14:16;101682.69;;;-5.43;80.25
16355;BME280;8287;51.644;8.494;2022-12-18T07:16:43;101674.34;;;-5.53;80.38
16355;BME280;8287;51.644;8.494;2022-12-18T07:19:09;101678.81;;;-5.39;80.48
16355;BME280;8287;51.644;8.494;2022-12-18T07:21:36;101674.31;;;-5.45;80.67
16355;BME280;8287;51.644;8.494;2022-12-18T07:24:06;101677.84;;;-5.38;80.47
16355;BME280;8287;51.644;8.494;2022-12-18T07:26:32;101675.56;;;-5.33;80.37
16355;BME280;8287;51.644;8.494;2022-12-18T07:28:59;101676.38;;;-5.32;80.22
16355;BME280;8287;51.644;8.494;2022-12-18T07:31:26;101676.88;;;-5.37;81.14
16355;BME280;8287;51.644;8.494;2022-12-18T07:33:53;101675.56;;;-5.33;81.07
16355;BME280;8287;51.644;8.494;2022-12-18T07:36:20;101675.75;;;-5.34;80.78
16355;BME280;8287;51.644;8.494;2022-12-18T07:38:47;101678.81;;;-5.39;81.26
16355;BME280;8287;51.644;8.494;2022-12-18T07:41:15;101676.06;;;-5.37;81.00
16355;BME280;8287;51.644;8.494;2022-12-18T07:43:43;101688.47;;;-5.33;81.29
16355;BME280;8287;51.644;8.494;2022-12-18T07:46:11;101691.25;;;-5.42;80.96
16355;BME280;8287;51.644;8.494;2022-12-18T07:48:38;101688.81;;;-5.36;80.85
16355;BME280;8287;51.644;8.494;2022-12-18T07:51:06;101690.75;;;-5.38;80.37
16355;BME280;8287;51.644;8.494;2022-12-18T07:53:35;101694.63;;;-5.42;79.99
16355;BME280;8287;51.644;8.494;2022-12-18T07:56:04;101697.53;;;-5.37;79.80
16355;BME280;8287;51.644;8.494;2022-12-18T07:58:34;101695.81;;;-5.44;79.76
16355;BME280;8287;51.644;8.494;2022-12-18T08:01:04;101695.31;;;-5.48;80.04
16355;BME280;8287;51.644;8.494;2022-12-18T08:03:31;101690.78;;;-5.46;79.97
16355;BME280;8287;51.644;8.494;2022-12-18T08:05:59;101692.72;;;-5.40;79.82
16355;BME280;8287;51.644;8.494;2022-12-18T08:08:26;101703.84;;;-5.39;79.11
16355;BME280;8287;51.644;8.494;2022-12-18T08:10:53;101698.06;;;-5.49;80.22
16355;BME280;8287;51.644;8.494;2022-12-18T08:13:19;101697.22;;;-5.42;80.16
16355;BME280;8287;51.644;8.494;2022-12-18T08:15:55;101688.84;;;-5.44;80.26
16355;BME280;8287;51.644;8.494;2022-12-18T08:18:22;101679.97;;;-5.41;80.10
16355;BME280;8287;51.644;8.494;2022-12-18T08:20:49;101686.59;;;-5.47;80.70
16355;BME280;8287;51.644;8.494;2022-12-18T08:23:15;101671.25;;;-5.40;81.05
16355;BME280;8287;51.644;8.494;2022-12-18T08:25:42;101660.75;;;-5.39;81.12
16355;BME280;8287;51.644;8.494;2022-12-18T08:28:10;101665.66;;;-5.21;81.13
16355;BME280;8287;51.644;8.494;2022-12-18T08:30:37;101669.69;;;-5.19;80.85
16355;BME280;8287;51.644;8.494;2022-12-18T08:33:05;101668.38;;;-5.15;80.46
16355;BME280;8287;51.644;8.494;2022-12-18T08:35:34;101653.97;;;-5.09;80.59
16355;BME280;8287;51.644;8.494;2022-12-18T08:38:01;101653.63;;;-5.06;80.73
16355;BME280;8287;51.644;8.494;2022-12-18T08:40:28;101649.41;;;-4.99;81.15
16355;BME280;8287;51.644;8.494;2022-12-18T08:42:54;101650.94;;;-4.90;80.67
16355;BME280;8287;51.644;8.494;2022-12-18T08:45:39;101656.78;;;-4.74;80.93
16355;BME280;8287;51.644;8.494;2022-12-18T08:48:07;101653.31;;;-4.81;81.14
16355;BME280;8287;51.644;8.494;2022-12-18T08:50:33;101653.78;;;-4.77;81.44
16355;BME280;8287;51.644;8.494;2022-12-18T08:53:00;101642.72;;;-4.71;81.96
16355;BME280;8287;51.644;8.494;2022-12-18T08:55:27;101636.59;;;-4.70;82.15
16355;BME280;8287;51.644;8.494;2022-12-18T08:57:53;101632.16;;;-4.62;82.59
16355;BME280;8287;51.644;8.494;2022-12-18T09:00:20;101634.84;;;-4.55;82.87
16355;BME280;8287;51.644;8.494;2022-12-18T09:02:47;101636.38;;;-4.46;83.27
16355;BME280;8287;51.644;8.494;2022-12-18T09:05:15;101627.41;;;-4.36;83.57
16355;BME280;8287;51.644;8.494;2022-12-18T09:07:42;101629.22;;;-4.22;83.19
16355;BME280;8287;51.644;8.494;2022-12-18T09:10:09;101622.25;;;-4.07;83.11
16355;BME280;8287;51.644;8.494;2022-12-18T09:12:35;101615.22;;;-3.98;83.67
16355;BME280;8287;51.644;8.494;2022-12-18T09:15:02;101617.88;;;-3.77;83.62
16355;BME280;8287;51.644;8.494;2022-12-18T09:17:29;101614.13;;;-3.60;83.77
16355;BME280;8287;51.644;8.494;2022-12-18T09:19:55;101628.25;;;-3.48;83.92
16355;BME280;8287;51.644;8.494;2022-12-18T09:22:23;101626.22;;;-3.32;83.78
16355;BME280;8287;51.644;8.494;2022-12-18T09:24:50;101638.19;;;-3.17;83.92
16355;BME280;8287;51.644;8.494;2022-12-18T09:27:16;101642.69;;;-3.04;83.50
16355;BME280;8287;51.644;8.494;2022-12-18T09:29:43;101628.69;;;-2.89;83.39
16355;BME280;8287;51.644;8.494;2022-12-18T09:32:10;101614.94;;;-2.89;82.95
16355;BME280;8287;51.644;8.494;2022-12-18T09:34:36;101619.38;;;-2.83;84.05
16355;BME280;8287;51.644;8.494;2022-12-18T09:37:03;101622.88;;;-2.70;84.42
16355;BME280;8287;51.644;8.494;2022-12-18T09:39:31;101624.03;;;-2.51;84.09
16355;BME280;8287;51.644;8.494;2022-12-18T09:41:58;101620.78;;;-2.32;83.94
16355;BME280;8287;51.644;8.494;2022-12-18T09:44:27;101616.06;;;-2.22;83.75
16355;BME280;8287;51.644;8.494;2022-12-18T09:47:03;101616.41;;;-2.04;83.23
16355;BME280;8287;51.644;8.494;2022-12-18T09:49:35;101620.50;;;-1.89;82.90
16355;BME280;8287;51.644;8.494;2022-12-18T09:52:08;101613.31;;;-1.80;82.71
16355;BME280;8287;51.644;8.494;2022-12-18T09:54:39;101616.75;;;-1.73;82.97
16355;BME280;8287;51.644;8.494;2022-12-18T09:57:06;101616.25;;;-1.62;82.70
16355;BME280;8287;51.644;8.494;2022-12-18T09:59:38;101626.66;;;-1.49;82.76
16355;BME280;8287;51.644;8.494;2022-12-18T10:02:14;101619.09;;;-1.44;82.64
16355;BME280;8287;51.644;8.494;2022-12-18T10:04:41;101614.53;;;-1.36;82.59
16355;BME280;8287;51.644;8.494;2022-12-18T10:07:12;101612.75;;;-1.22;82.43
16355;BME280;8287;51.644;8.494;2022-12-18T10:09:47;101617.19;;;-1.10;81.97
16355;BME280;8287;51.644;8.494;2022-12-18T10:12:21;101616.81;;;-1.00;81.89
16355;BME280;8287;51.644;8.494;2022-12-18T10:14:53;101613.25;;;-0.86;81.93
16355;BME280;8287;51.644;8.494;2022-12-18T10:17:28;101615.69;;;-0.78;81.66
16355;BME280;8287;51.644;8.494;2022-12-18T10:20:01;101610.47;;;-0.65;81.17
16355;BME280;8287;51.644;8.494;2022-12-18T10:22:39;101596.66;;;-0.59;81.02
16355;BME280;8287;51.644;8.494;2022-12-18T10:25:19;101586.84;;;-0.51;80.92
16355;BME280;8287;51.644;8.494;2022-12-18T10:27:51;101569.41;;;-0.44;80.42
16355;BME280;8287;51.644;8.494;2022-12-18T10:30:20;101555.19;;;-0.28;80.51
16355;BME280;8287;51.644;8.494;2022-12-18T10:32:47;101552.19;;;-0.25;80.25
16355;BME280;8287;51.644;8.494;2022-12-18T10:35:18;101543.94;;;-0.16;80.14
16355;BME280;8287;51.644;8.494;2022-12-18T10:38:06;101538.28;;;-0.07;80.58
16355;BME280;8287;51.644;8.494;2022-12-18T10:40:47;101543.50;;;0.00;79.97
16355;BME280;8287;51.644;8.494;2022-12-18T10:43:16;101549.09;;;0.10;79.89
16355;BME280;8287;51.644;8.494;2022-12-18T10:46:02;101534.81;;;0.19;79.55
16355;BME280;8287;51.644;8.494;2022-12-18T10:48:31;101526.53;;;0.28;79.46
16355;BME280;8287;51.644;8.494;2022-12-18T10:50:59;101531.31;;;0.38;79.63
16355;BME280;8287;51.644;8.494;2022-12-18T10:53:28;101513.25;;;0.43;79.37
16355;BME280;8287;51.644;8.494;2022-12-18T10:56:02;101511.81;;;0.47;79.02
16355;BME280;8287;51.644;8.494;2022-12-18T10:58:31;101508.16;;;0.54;79.14
16355;BME280;8287;51.644;8.494;2022-12-18T11:01:05;101505.91;;;0.64;79.17
16355;BME280;8287;51.644;8.494;2022-12-18T11:03:33;101501.66;;;0.70;78.86
16355;BME280;8287;51.644;8.494;2022-12-18T11:06:04;101500.19;;;0.80;78.90
16355;BME280;8287;51.644;8.494;2022-12-18T11:08:31;101506.13;;;0.87;78.58
16355;BME280;8287;51.644;8.494;2022-12-18T11:10:59;101501.91;;;0.93;78.60
16355;BME280;8287;51.644;8.494;2022-12-18T11:13:27;101495.22;;;0.97;78.59
16355;BME280;8287;51.644;8.494;2022-12-18T11:15:55;101492.16;;;1.06;78.49
16355;BME280;8287;51.644;8.494;2022-12-18T11:18:25;101473.97;;;0.93;77.47
16355;BME280;8287;51.644;8.494;2022-12-18T11:20:54;101455.63;;;1.06;77.73
16355;BME280;8287;51.644;8.494;2022-12-18T11:23:23;101439.69;;;1.14;78.28
16355;BME280;8287;51.644;8.494;2022-12-18T11:25:55;101430.56;;;1.23;78.41
16355;BME280;8287;51.644;8.494;2022-12-18T11:28:46;101435.91;;;1.28;74.43
16355;BME280;8287;51.644;8.494;2022-12-18T11:31:22;101430.56;;;1.41;70.83
16355;BME280;8287;51.644;8.494;2022-12-18T11:34:01;101431.66;;;1.52;69.26
16355;BME280;8287;51.644;8.494;2022-12-18T11:36:33;101424.69;;;1.64;67.34
16355;BME280;8287;51.644;8.494;2022-12-18T11:39:08;101432.97;;;1.79;66.52
16355;BME280;8287;51.644;8.494;2022-12-18T11:41:42;101435.84;;;1.89;66.40
16355;BME280;8287;51.644;8.494;2022-12-18T11:44:36;101422.38;;;2.03;65.35
16355;BME280;8287;51.644;8.494;2022-12-18T11:47:10;101426.41;;;2.17;64.34
16355;BME280;8287;51.644;8.494;2022-12-18T11:49:40;101428.25;;;2.28;62.77
16355;BME280;8287;51.644;8.494;2022-12-18T11:52:18;101423.28;;;2.38;61.79
16355;BME280;8287;51.644;8.494;2022-12-18T11:54:45;101425.03;;;2.56;61.90
16355;BME280;8287;51.644;8.494;2022-12-18T11:57:19;101414.72;;;2.61;59.89
16355;BME280;8287;51.644;8.494;2022-12-18T11:59:58;101405.63;;;2.75;60.21
16355;BME280;8287;51.644;8.494;2022-12-18T12:02:42;101406.09;;;2.83;56.96
16355;BME280;8287;51.644;8.494;2022-12-18T12:05:28;101398.13;;;2.90;58.47
16355;BME280;8287;51.644;8.494;2022-12-18T12:08:03;101382.88;;;2.98;56.88
16355;BME280;8287;51.644;8.494;2022-12-18T12:10:40;101377.19;;;3.01;55.04
16355;BME280;8287;51.644;8.494;2022-12-18T12:13:23;101370.09;;;3.13;56.37
16355;BME280;8287;51.644;8.494;2022-12-18T12:16:03;101360.09;;;3.10;52.48
16355;BME280;8287;51.644;8.494;2022-12-18T12:18:43;101358.69;;;3.42;56.46
16355;BME280;8287;51.644;8.494;2022-12-18T12:21:17;101358.91;;;3.40;53.38
16355;BME280;8287;51.644;8.494;2022-12-18T12:23:50;101350.97;;;3.63;53.43
16355;BME280;8287;51.644;8.494;2022-12-18T12:26:24;101357.94;;;3.58;51.73
16355;BME280;8287;51.644;8.494;2022-12-18T12:29:01;101360.22;;;3.66;54.18
16355;BME280;8287;51.644;8.494;2022-12-18T12:31:43;101366.25;;;3.55;54.33
16355;BME280;8287;51.644;8.494;2022-12-18T12:34:17;101368.09;;;3.54;52.36
16355;BME280;8287;51.644;8.494;2022-12-18T12:36:57;101363.94;;;3.70;53.92
16355;BME280;8287;51.644;8.494;2022-12-18T12:39:30;101364.34;;;3.39;50.96
16355;BME280;8287;51.644;8.494;2022-12-18T12:41:59;101365.16;;;3.79;53.05
16355;BME280;8287;51.644;8.494;2022-12-18T12:44:46;101368.16;;;3.71;51.61
16355;BME280;8287;51.644;8.494;2022-12-18T12:47:20;101365.69;;;3.53;50.13
16355;BME280;8287;51.644;8.494;2022-12-18T12:49:49;101358.63;;;3.65;51.68
16355;BME280;8287;51.644;8.494;2022-12-18T12:52:22;101362.16;;;3.87;51.38
16355;BME280;8287;51.644;8.494;2022-12-18T12:54:54;101360.75;;;3.68;50.66
16355;BME280;8287;51.644;8.494;2022-12-18T12:57:24;101359.84;;;3.74;52.14
16355;BME280;8287;51.644;8.494;2022-12-18T12:59:58;101357.75;;;3.76;51.32
16355;BME280;8287;51.644;8.494;2022-12-18T13:02:33;101354.47;;;3.69;51.67
16355;BME280;8287;51.644;8.494;2022-12-18T13:05:08;101355.22;;;3.81;51.21
16355;BME280;8287;51.644;8.494;2022-12-18T13:07:40;101337.59;;;3.48;52.35
16355;BME280;8287;51.644;8.494;2022-12-18T13:10:14;101331.22;;;3.44;52.19
16355;BME280;8287;51.644;8.494;2022-12-18T13:12:53;101327.69;;;3.39;52.86
16355;BME280;8287;51.644;8.494;2022-12-18T13:15:24;101329.59;;;3.43;52.39
16355;BME280;8287;51.644;8.494;2022-12-18T13:18:05;101325.50;;;3.47;51.76